createdAt,value
2019-04-01T00:00:35.911Z,57.70
2019-04-01T00:01:34.163Z,57.50
2019-04-01T00:02:34.148Z,57.60
2019-04-01T00:03:34.133Z,58.22
2019-04-01T00:04:34.129Z,58.01
2019-04-01T00:05:34.120Z,57.40
2019-04-01T00:06:34.412Z,57.29
2019-04-01T00:07:34.097Z,57.40
2019-04-01T00:08:34.089Z,57.91
2019-04-01T00:09:34.409Z,58.64
2019-04-01T00:10:34.063Z,58.53
2019-04-01T00:11:36.860Z,56.77
2019-04-01T00:12:34.042Z,56.77
2019-04-01T00:13:34.034Z,56.77
2019-04-01T00:14:34.025Z,57.09
2019-04-01T00:15:34.042Z,57.29
2019-04-01T00:16:34.007Z,58.43
2019-04-01T00:17:33.987Z,57.60
2019-04-01T00:18:36.867Z,57.60
2019-04-01T00:19:33.959Z,57.60
2019-04-01T00:20:33.972Z,58.43
2019-04-01T00:21:33.957Z,57.50
2019-04-01T00:22:33.977Z,57.50
2019-04-01T00:23:33.923Z,57.19
2019-04-01T00:24:33.917Z,56.96
2019-04-01T00:25:33.899Z,57.40
2019-04-01T00:26:33.889Z,57.37
2019-04-01T00:27:36.868Z,57.91
2019-04-01T00:28:33.871Z,57.68
2019-04-01T00:29:33.853Z,57.26
2019-04-01T00:30:36.354Z,56.44
2019-04-01T00:31:33.847Z,55.00
2019-04-01T00:32:33.829Z,54.27
2019-04-01T00:33:33.843Z,55.74
2019-04-01T00:34:33.801Z,55.72
2019-04-01T00:35:33.794Z,56.37
2019-04-01T00:36:33.783Z,55.85
2019-04-01T00:37:33.772Z,56.77
2019-04-01T00:38:33.758Z,56.05
2019-04-01T00:39:33.766Z,55.74
2019-04-01T00:40:33.734Z,55.85
2019-04-01T00:41:33.727Z,56.77
2019-04-01T00:43:32.700Z,56.16
2019-04-01T00:45:32.715Z,56.57
2019-04-01T00:46:33.674Z,56.57
2019-04-01T00:47:33.657Z,55.85
2019-04-01T00:48:33.731Z,55.95
2019-04-01T00:49:33.656Z,55.74
2019-04-01T00:50:33.627Z,55.95
2019-04-01T00:51:36.352Z,56.26
2019-04-01T00:52:33.607Z,55.85
2019-04-01T00:53:33.593Z,55.74
2019-04-01T00:54:33.899Z,55.13
2019-04-01T00:55:33.572Z,54.50
2019-04-01T00:56:33.571Z,54.09
2019-04-01T00:57:33.553Z,52.88
2019-04-01T00:58:33.533Z,53.29
2019-04-01T01:00:32.534Z,54.63
2019-04-01T01:01:33.506Z,53.81
2019-04-01T01:02:33.488Z,54.22
2019-04-01T01:03:36.347Z,54.43
2019-04-01T01:04:33.475Z,54.02
2019-04-01T01:05:33.487Z,53.91
2019-04-01T01:06:33.451Z,53.70
2019-04-01T01:07:33.437Z,54.02
2019-04-01T01:08:33.433Z,53.39
2019-04-01T01:09:33.422Z,52.88
2019-04-01T01:10:33.410Z,53.21
2019-04-01T01:11:38.888Z,53.50
2019-04-01T01:13:32.367Z,54.25
2019-04-01T01:14:33.364Z,53.91
2019-04-01T01:15:33.355Z,53.94
2019-04-01T01:16:33.842Z,52.91
2019-04-01T01:17:33.856Z,53.83
2019-04-01T01:19:32.309Z,54.55
2019-04-01T01:20:33.304Z,54.25
2019-04-01T01:21:33.291Z,54.14
2019-04-01T01:22:33.278Z,53.94
2019-04-01T01:23:34.885Z,54.35
2019-04-01T01:24:33.259Z,54.89
2019-04-01T01:25:33.247Z,54.86
2019-04-01T01:26:33.231Z,54.45
2019-04-01T01:27:33.229Z,55.69
2019-04-01T01:28:33.210Z,55.49
2019-04-01T01:29:33.221Z,54.86
2019-04-01T01:30:33.193Z,55.07
2019-04-01T01:31:33.187Z,53.83
2019-04-01T01:32:35.839Z,53.34
2019-04-01T01:33:33.159Z,52.62
2019-04-01T01:34:33.159Z,52.72
2019-04-01T01:35:33.131Z,52.93
2019-04-01T01:36:33.839Z,53.34
2019-04-01T01:37:33.111Z,53.23
2019-04-01T01:38:33.095Z,53.26
2019-04-01T01:39:33.100Z,53.26
2019-04-01T01:40:33.125Z,54.40
2019-04-01T01:41:33.070Z,53.26
2019-04-01T01:42:33.059Z,52.95
2019-04-01T01:43:33.137Z,53.26
2019-04-01T01:44:33.041Z,51.81
2019-04-01T01:45:33.022Z,52.36
2019-04-01T01:46:33.040Z,52.33
2019-04-01T01:47:33.005Z,53.59
2019-04-01T01:48:32.990Z,52.98
2019-04-01T01:49:32.989Z,52.02
2019-04-01T01:50:32.965Z,52.02
2019-04-01T01:51:35.840Z,52.75
2019-04-01T01:52:32.971Z,52.54
2019-04-01T01:53:32.947Z,53.47
2019-04-01T01:54:32.940Z,52.67
2019-04-01T01:55:32.917Z,52.04
2019-04-01T01:56:32.903Z,52.25
2019-04-01T01:57:32.897Z,51.94
2019-04-01T01:58:32.894Z,52.33
2019-04-01T01:59:32.873Z,51.84
2019-04-01T02:00:32.865Z,52.87
2019-04-01T02:01:32.849Z,53.18
2019-04-01T02:02:32.851Z,53.39
2019-04-01T02:03:32.835Z,52.98
2019-04-01T02:04:33.335Z,51.81
2019-04-01T02:05:32.810Z,52.12
2019-04-01T02:06:32.796Z,52.54
2019-04-01T02:07:32.791Z,51.92
2019-04-01T02:08:32.788Z,52.33
2019-04-01T02:09:32.765Z,51.81
2019-04-01T02:10:32.788Z,51.92
2019-04-01T02:11:32.749Z,51.50
2019-04-01T02:12:32.733Z,51.73
2019-04-01T02:13:32.721Z,52.36
2019-04-01T02:14:32.714Z,51.94
2019-04-01T02:15:32.709Z,51.84
2019-04-01T02:16:32.705Z,52.36
2019-04-01T02:17:32.685Z,52.04
2019-04-01T02:18:32.671Z,52.15
2019-04-01T02:19:32.665Z,51.84
2019-04-01T02:20:35.330Z,52.46
2019-04-01T02:21:32.679Z,51.73
2019-04-01T02:22:32.625Z,51.73
2019-04-01T02:23:35.325Z,51.53
2019-04-01T02:24:35.318Z,51.42
2019-04-01T02:26:31.582Z,51.42
2019-04-01T02:27:32.619Z,52.46
2019-04-01T02:28:32.562Z,52.04
2019-04-01T02:29:32.550Z,52.80
2019-04-01T02:30:32.549Z,52.04
2019-04-01T02:31:32.542Z,52.67
2019-04-01T02:32:32.518Z,52.04
2019-04-01T02:33:32.542Z,52.46
2019-04-01T02:34:32.504Z,51.94
2019-04-01T02:35:32.492Z,52.04
2019-04-01T02:36:32.485Z,52.25
2019-04-01T02:37:32.465Z,51.21
2019-04-01T02:38:32.451Z,52.04
2019-04-01T02:39:32.470Z,52.59
2019-04-01T02:40:35.332Z,51.84
2019-04-01T02:41:32.441Z,51.97
2019-04-01T02:42:32.404Z,51.97
2019-04-01T02:43:32.405Z,51.86
2019-04-01T02:44:32.403Z,52.07
2019-04-01T02:45:32.414Z,52.80
2019-04-01T02:46:32.372Z,52.25
2019-04-01T02:47:32.357Z,51.84
2019-04-01T02:48:34.817Z,51.65
2019-04-01T02:49:32.341Z,51.76
2019-04-01T02:50:32.326Z,52.28
2019-04-01T02:51:34.820Z,51.76
2019-04-01T02:52:32.301Z,51.99
2019-04-01T02:53:34.811Z,52.09
2019-04-01T02:54:32.281Z,52.61
2019-04-01T02:55:32.269Z,52.61
2019-04-01T02:56:32.297Z,52.61
2019-04-01T02:58:31.238Z,52.38
2019-04-01T02:59:32.221Z,52.28
2019-04-01T03:00:32.230Z,51.78
2019-04-01T03:01:32.207Z,52.17
2019-04-01T03:02:32.201Z,51.47
2019-04-01T03:03:32.182Z,52.30
2019-04-01T03:05:31.167Z,51.89
2019-04-01T03:06:32.157Z,52.17
2019-04-01T03:07:32.183Z,52.09
2019-04-01T03:08:32.136Z,52.59
2019-04-01T03:09:32.128Z,52.09
2019-04-01T03:10:32.109Z,51.89
2019-04-01T03:11:32.107Z,51.89
2019-04-01T03:12:32.084Z,51.76
2019-04-01T03:13:32.096Z,51.89
2019-04-01T03:14:32.078Z,51.99
2019-04-01T03:15:32.052Z,51.57
2019-04-01T03:16:32.041Z,51.65
2019-04-01T03:17:32.061Z,52.40
2019-04-01T03:18:32.024Z,52.40
2019-04-01T03:19:32.013Z,51.76
2019-04-01T03:20:32.020Z,52.17
2019-04-01T03:21:34.815Z,52.28
2019-04-01T03:22:31.983Z,51.65
2019-04-01T03:23:31.972Z,51.97
2019-04-01T03:24:31.958Z,52.17
2019-04-01T03:25:31.951Z,51.97
2019-04-01T03:26:35.350Z,52.17
2019-04-01T03:27:31.920Z,53.31
2019-04-01T03:28:31.915Z,54.06
2019-04-01T03:29:31.900Z,53.12
2019-04-01T03:30:31.895Z,52.61
2019-04-01T03:31:31.885Z,51.99
2019-04-01T03:32:31.918Z,52.30
2019-04-01T03:33:31.857Z,52.09
2019-04-01T03:34:31.859Z,52.51
2019-04-01T03:35:31.840Z,52.09
2019-04-01T03:36:31.830Z,52.92
2019-04-01T03:38:30.839Z,52.09
2019-04-01T03:39:31.793Z,52.09
2019-04-01T03:40:31.786Z,53.85
2019-04-01T03:41:31.785Z,53.75
2019-04-01T03:42:31.779Z,54.06
2019-04-01T03:43:31.753Z,54.27
2019-04-01T03:44:31.741Z,54.37
2019-04-01T03:45:31.724Z,53.96
2019-04-01T03:46:34.303Z,54.47
2019-04-01T03:48:30.705Z,54.06
2019-04-01T03:49:31.682Z,54.99
2019-04-01T03:50:31.707Z,55.22
2019-04-01T03:51:31.681Z,55.02
2019-04-01T03:53:30.710Z,54.60
2019-04-01T03:54:31.631Z,55.43
2019-04-01T03:55:33.349Z,55.74
2019-04-01T03:56:31.635Z,56.16
2019-04-01T03:57:31.599Z,55.95
2019-04-01T03:58:31.594Z,56.05
2019-04-01T03:59:31.572Z,56.29
2019-04-01T04:00:31.566Z,56.37
2019-04-01T04:01:31.557Z,56.18
2019-04-01T04:02:32.300Z,56.29
2019-04-01T04:03:31.540Z,55.95
2019-04-01T04:04:31.521Z,57.01
2019-04-01T04:05:31.513Z,56.70
2019-04-01T04:06:31.509Z,56.91
2019-04-01T04:07:31.485Z,56.81
2019-04-01T04:08:31.495Z,56.60
2019-04-01T04:09:31.462Z,56.29
2019-04-01T04:10:31.456Z,56.29
2019-04-01T04:11:31.445Z,56.81
2019-04-01T04:12:31.433Z,56.70
2019-04-01T04:13:31.456Z,56.49
2019-04-01T04:14:31.425Z,55.90
2019-04-01T04:15:31.406Z,55.35
2019-04-01T04:16:31.421Z,55.15
2019-04-01T04:17:31.375Z,55.07
2019-04-01T04:18:31.381Z,55.15
2019-04-01T04:19:31.355Z,55.35
2019-04-01T04:20:31.351Z,54.65
2019-04-01T04:21:31.355Z,55.17
2019-04-01T04:22:31.351Z,55.90
2019-04-01T04:23:31.311Z,55.79
2019-04-01T04:24:31.420Z,56.21
2019-04-01T04:25:31.293Z,56.10
2019-04-01T04:26:31.282Z,56.10
2019-04-01T04:27:31.275Z,56.62
2019-04-01T04:28:31.277Z,56.00
2019-04-01T04:29:31.247Z,56.21
2019-04-01T04:30:31.241Z,56.41
2019-04-01T04:31:31.223Z,56.21
2019-04-01T04:32:31.797Z,56.41
2019-04-01T04:33:31.209Z,54.96
2019-04-01T04:34:31.214Z,55.38
2019-04-01T04:35:31.184Z,56.24
2019-04-01T04:36:31.171Z,56.00
2019-04-01T04:37:31.160Z,56.10
2019-04-01T04:38:31.156Z,56.65
2019-04-01T04:39:31.138Z,56.21
2019-04-01T04:40:31.323Z,55.93
2019-04-01T04:41:31.126Z,57.14
2019-04-01T04:42:31.108Z,56.41
2019-04-01T04:43:31.094Z,57.28
2019-04-01T04:44:33.786Z,57.14
2019-04-01T04:45:31.076Z,57.28
2019-04-01T04:46:31.083Z,57.59
2019-04-01T04:47:31.072Z,57.76
2019-04-01T04:48:31.782Z,57.87
2019-04-01T04:49:31.028Z,57.79
2019-04-01T04:50:33.780Z,57.59
2019-04-01T04:51:31.117Z,57.07
2019-04-01T04:52:30.997Z,56.73
2019-04-01T04:53:30.989Z,57.14
2019-04-01T04:54:30.979Z,56.96
2019-04-01T04:55:30.963Z,56.83
2019-04-01T04:56:30.952Z,56.52
2019-04-01T04:57:30.964Z,56.31
2019-04-01T04:58:30.961Z,56.21
2019-04-01T04:59:33.774Z,56.24
2019-04-01T05:00:30.911Z,56.21
2019-04-01T05:01:30.902Z,56.24
2019-04-01T05:02:30.896Z,56.31
2019-04-01T05:03:30.881Z,56.00
2019-04-01T05:04:30.892Z,56.73
2019-04-01T05:05:30.867Z,56.21
2019-04-01T05:06:30.865Z,56.31
2019-04-01T05:07:31.560Z,55.90
2019-04-01T05:08:30.825Z,56.03
2019-04-01T05:09:30.818Z,56.76
2019-04-01T05:10:30.807Z,56.96
2019-04-01T05:11:31.270Z,56.96
2019-04-01T05:12:30.812Z,57.69
2019-04-01T05:13:33.288Z,57.90
2019-04-01T05:14:30.770Z,57.90
2019-04-01T05:16:29.761Z,57.90
2019-04-01T05:17:30.728Z,58.21
2019-04-01T05:18:30.739Z,57.79
2019-04-01T05:20:29.699Z,57.69
2019-04-01T05:21:30.685Z,57.90
2019-04-01T05:22:33.270Z,58.00
2019-04-01T05:23:30.814Z,59.14
2019-04-01T05:24:30.734Z,58.31
2019-04-01T05:25:32.040Z,57.59
2019-04-01T05:26:30.631Z,58.00
2019-04-01T05:27:30.617Z,57.90
2019-04-01T05:28:30.610Z,57.66
2019-04-01T05:29:30.830Z,57.69
2019-04-01T05:30:30.585Z,58.00
2019-04-01T05:31:33.269Z,58.70
2019-04-01T05:32:30.570Z,58.62
2019-04-01T05:33:30.552Z,57.76
2019-04-01T05:34:30.543Z,57.35
2019-04-01T05:35:30.554Z,57.17
2019-04-01T05:36:30.516Z,56.52
2019-04-01T05:37:30.515Z,55.90
2019-04-01T05:38:33.259Z,56.45
2019-04-01T05:39:30.487Z,56.86
2019-04-01T05:40:30.479Z,57.07
2019-04-01T05:41:30.489Z,56.96
2019-04-01T05:42:30.457Z,56.65
2019-04-01T05:44:29.460Z,56.86
2019-04-01T05:45:30.426Z,55.82
2019-04-01T05:46:30.408Z,56.34
2019-04-01T05:47:30.409Z,56.55
2019-04-01T05:48:33.264Z,56.31
2019-04-01T05:49:30.392Z,56.52
2019-04-01T05:50:30.371Z,56.41
2019-04-01T05:51:34.263Z,55.90
2019-04-01T05:52:30.348Z,55.69
2019-04-01T05:53:33.259Z,54.75
2019-04-01T05:54:30.335Z,54.86
2019-04-01T05:55:30.323Z,56.31
2019-04-01T05:56:30.327Z,54.96
2019-04-01T05:57:33.301Z,55.69
2019-04-01T05:58:30.764Z,55.17
2019-04-01T05:59:30.758Z,56.41
2019-04-01T06:00:32.760Z,56.21
2019-04-01T06:01:30.254Z,55.27
2019-04-01T06:02:30.266Z,54.86
2019-04-01T06:03:30.234Z,55.07
2019-04-01T06:04:30.217Z,55.27
2019-04-01T06:05:30.204Z,54.65
2019-04-01T06:06:30.225Z,55.79
2019-04-01T06:07:30.268Z,55.69
2019-04-01T06:08:30.213Z,54.86
2019-04-01T06:09:30.175Z,55.17
2019-04-01T06:10:30.161Z,55.58
2019-04-01T06:11:30.147Z,55.17
2019-04-01T06:12:30.146Z,56.31
2019-04-01T06:13:30.163Z,56.21
2019-04-01T06:14:30.113Z,55.69
2019-04-01T06:15:32.753Z,56.21
2019-04-01T06:16:30.092Z,56.21
2019-04-01T06:17:30.079Z,56.31
2019-04-01T06:18:30.137Z,55.07
2019-04-01T06:19:30.082Z,55.38
2019-04-01T06:20:30.041Z,55.58
2019-04-01T06:21:30.038Z,54.65
2019-04-01T06:22:30.020Z,55.38
2019-04-01T06:23:30.023Z,55.38
2019-04-01T06:24:30.045Z,55.58
2019-04-01T06:25:29.994Z,56.41
2019-04-01T06:26:29.976Z,56.00
2019-04-01T06:27:30.375Z,56.21
2019-04-01T06:28:29.965Z,56.00
2019-04-01T06:29:29.949Z,56.21
2019-04-01T06:30:32.748Z,56.00
2019-04-01T06:31:29.950Z,56.31
2019-04-01T06:33:28.917Z,56.00
2019-04-01T06:34:29.895Z,55.90
2019-04-01T06:35:29.888Z,56.10
2019-04-01T06:36:29.937Z,56.31
2019-04-01T06:37:29.869Z,56.00
2019-04-01T06:38:30.745Z,56.52
2019-04-01T06:39:29.839Z,56.41
2019-04-01T06:40:29.832Z,56.10
2019-04-01T06:41:29.818Z,56.08
2019-04-01T06:42:29.823Z,56.08
2019-04-01T06:43:29.801Z,56.60
2019-04-01T06:44:29.787Z,56.37
2019-04-01T06:45:29.783Z,55.15
2019-04-01T06:46:32.244Z,55.15
2019-04-01T06:47:29.747Z,55.12
2019-04-01T06:48:29.761Z,54.21
2019-04-01T06:49:29.735Z,54.91
2019-04-01T06:50:29.717Z,55.02
2019-04-01T06:51:32.237Z,55.02
2019-04-01T06:52:29.717Z,55.12
2019-04-01T06:53:29.686Z,55.33
2019-04-01T06:54:30.239Z,54.81
2019-04-01T06:55:29.664Z,55.12
2019-04-01T06:56:30.248Z,54.99
2019-04-01T06:57:29.665Z,54.37
2019-04-01T06:58:29.638Z,54.37
2019-04-01T06:59:29.618Z,54.16
2019-04-01T07:00:29.730Z,53.96
2019-04-01T07:01:29.601Z,54.58
2019-04-01T07:02:29.583Z,53.85
2019-04-01T07:03:29.590Z,54.37
2019-04-01T07:04:29.566Z,54.06
2019-04-01T07:05:29.563Z,54.97
2019-04-01T07:06:29.587Z,54.03
2019-04-01T07:07:29.528Z,54.55
2019-04-01T07:08:29.533Z,54.24
2019-04-01T07:09:29.558Z,54.45
2019-04-01T07:10:29.501Z,54.03
2019-04-01T07:11:29.578Z,52.87
2019-04-01T07:12:29.481Z,53.39
2019-04-01T07:13:29.466Z,52.98
2019-04-01T07:14:29.461Z,52.36
2019-04-01T07:15:29.559Z,52.67
2019-04-01T07:16:29.434Z,52.67
2019-04-01T07:17:32.241Z,51.63
2019-04-01T07:18:30.237Z,51.63
2019-04-01T07:19:29.406Z,51.84
2019-04-01T07:20:29.392Z,52.15
2019-04-01T07:21:29.777Z,51.09
2019-04-01T07:22:29.369Z,50.47
2019-04-01T07:23:29.363Z,50.47
2019-04-01T07:24:29.350Z,50.68
2019-04-01T07:25:29.348Z,50.57
2019-04-01T07:26:30.222Z,49.74
2019-04-01T07:27:29.341Z,50.05
2019-04-01T07:28:29.301Z,50.57
2019-04-01T07:29:29.301Z,49.74
2019-04-01T07:30:29.315Z,50.47
2019-04-01T07:31:29.275Z,49.13
2019-04-01T07:32:29.269Z,48.92
2019-04-01T07:33:29.255Z,48.92
2019-04-01T07:34:29.245Z,50.86
2019-04-01T07:35:29.229Z,50.03
2019-04-01T07:36:30.768Z,49.82
2019-04-01T07:37:29.210Z,50.45
2019-04-01T07:38:29.292Z,49.62
2019-04-01T07:39:29.201Z,49.82
2019-04-01T07:40:29.202Z,50.65
2019-04-01T07:41:29.167Z,49.72
2019-04-01T07:42:29.151Z,49.49
2019-04-01T07:43:29.145Z,48.77
2019-04-01T07:44:29.135Z,48.87
2019-04-01T07:45:29.123Z,48.66
2019-04-01T07:46:29.134Z,49.39
2019-04-01T07:47:29.723Z,48.97
2019-04-01T07:48:29.098Z,48.66
2019-04-01T07:49:29.079Z,47.94
2019-04-01T07:50:29.198Z,48.95
2019-04-01T07:51:29.097Z,47.81
2019-04-01T07:52:29.065Z,47.81
2019-04-01T07:53:29.045Z,48.02
2019-04-01T07:54:29.022Z,48.44
2019-04-01T07:55:29.499Z,48.95
2019-04-01T07:56:29.007Z,48.31
2019-04-01T07:57:32.515Z,48.00
2019-04-01T07:58:29.718Z,47.92
2019-04-01T07:59:28.969Z,47.90
2019-04-01T08:00:29.720Z,47.07
2019-04-01T08:01:28.953Z,47.80
2019-04-01T08:02:28.947Z,47.80
2019-04-01T08:03:28.958Z,47.90
2019-04-01T08:04:28.923Z,46.56
2019-04-01T08:05:28.966Z,47.38
2019-04-01T08:06:28.901Z,47.56
2019-04-01T08:07:28.887Z,47.67
2019-04-01T08:08:28.901Z,46.33
2019-04-01T08:09:28.868Z,46.66
2019-04-01T08:10:29.719Z,46.84
2019-04-01T08:11:28.924Z,47.46
2019-04-01T08:12:29.714Z,47.16
2019-04-01T08:13:31.717Z,47.88
2019-04-01T08:14:31.719Z,47.67
2019-04-01T08:15:28.790Z,47.67
2019-04-01T08:16:28.784Z,47.55
2019-04-01T08:17:28.775Z,47.44
2019-04-01T08:18:28.796Z,46.92
2019-04-01T08:19:28.752Z,46.41
2019-04-01T08:20:28.747Z,46.41
2019-04-01T08:21:29.214Z,46.80
2019-04-01T08:22:28.726Z,47.94
2019-04-01T08:23:28.711Z,48.14
2019-04-01T08:24:28.716Z,46.49
2019-04-01T08:25:29.214Z,47.21
2019-04-01T08:26:28.684Z,47.42
2019-04-01T08:27:28.666Z,47.31
2019-04-01T08:28:28.666Z,46.70
2019-04-01T08:29:30.455Z,46.91
2019-04-01T08:30:28.675Z,47.21
2019-04-01T08:31:28.663Z,47.19
2019-04-01T08:32:28.612Z,47.40
2019-04-01T08:33:28.602Z,47.11
2019-04-01T08:34:28.590Z,46.37
2019-04-01T08:35:28.586Z,45.85
2019-04-01T08:36:28.701Z,47.09
2019-04-01T08:37:28.574Z,46.14
2019-04-01T08:38:28.544Z,45.62
2019-04-01T08:39:28.537Z,45.83
2019-04-01T08:40:28.528Z,46.34
2019-04-01T08:41:28.534Z,45.52
2019-04-01T08:42:28.617Z,45.52
2019-04-01T08:43:28.492Z,44.89
2019-04-01T08:44:28.482Z,44.37
2019-04-01T08:45:29.208Z,45.19
2019-04-01T08:46:28.459Z,44.89
2019-04-01T08:47:28.452Z,44.89
2019-04-01T08:48:28.555Z,45.19
2019-04-01T08:49:28.433Z,45.09
2019-04-01T08:50:29.203Z,45.79
2019-04-01T08:51:28.407Z,45.40
2019-04-01T08:52:28.398Z,45.28
2019-04-01T08:53:28.381Z,44.14
2019-04-01T08:54:28.388Z,44.35
2019-04-01T08:55:28.381Z,43.61
2019-04-01T08:56:28.349Z,43.71
2019-04-01T08:57:28.345Z,43.91
2019-04-01T08:58:28.331Z,43.91
2019-04-01T08:59:28.317Z,44.20
2019-04-01T09:00:28.303Z,43.59
2019-04-01T09:01:34.952Z,42.66
2019-04-01T09:02:28.286Z,42.44
2019-04-01T09:03:28.279Z,42.35
2019-04-01T09:04:28.254Z,42.46
2019-04-01T09:05:28.251Z,42.02
2019-04-01T09:06:31.184Z,42.66
2019-04-01T09:07:28.313Z,42.64
2019-04-01T09:08:28.216Z,42.86
2019-04-01T09:09:28.208Z,42.95
2019-04-01T09:10:28.196Z,42.85
2019-04-01T09:11:28.218Z,41.82
2019-04-01T09:12:28.173Z,41.00
2019-04-01T09:13:28.185Z,42.54
2019-04-01T09:14:28.149Z,41.82
2019-04-01T09:15:28.142Z,40.98
2019-04-01T09:16:28.136Z,41.31
2019-04-01T09:17:28.116Z,41.20
2019-04-01T09:18:28.106Z,41.28
2019-04-01T09:19:28.132Z,40.77
2019-04-01T09:20:28.096Z,41.39
2019-04-01T09:21:28.072Z,41.39
2019-04-01T09:22:28.270Z,40.57
2019-04-01T09:23:28.041Z,40.55
2019-04-01T09:24:28.048Z,41.08
2019-04-01T09:25:28.026Z,40.65
2019-04-01T09:26:28.018Z,40.77
2019-04-01T09:27:28.014Z,41.88
2019-04-01T09:28:28.106Z,40.03
2019-04-01T09:29:27.990Z,41.16
2019-04-01T09:30:27.983Z,40.63
2019-04-01T09:31:27.970Z,40.86
2019-04-01T09:32:27.954Z,40.22
2019-04-01T09:33:28.011Z,40.03
2019-04-01T09:34:27.949Z,38.19
2019-04-01T09:35:27.933Z,39.09
2019-04-01T09:36:27.920Z,40.22
2019-04-01T09:37:27.898Z,40.10
2019-04-01T09:38:27.889Z,39.48
2019-04-01T09:39:27.875Z,38.35
2019-04-01T09:40:27.989Z,38.77
2019-04-01T09:41:28.693Z,38.97
2019-04-01T09:42:27.846Z,38.97
2019-04-01T09:43:27.830Z,37.83
2019-04-01T09:44:36.981Z,37.93
2019-04-01T09:45:27.817Z,38.24
2019-04-01T09:46:27.832Z,37.83
2019-04-01T09:47:27.788Z,38.03
2019-04-01T09:48:27.808Z,38.85
2019-04-01T09:49:27.769Z,38.24
2019-04-01T09:50:27.756Z,39.04
2019-04-01T09:51:27.745Z,37.81
2019-04-01T09:52:27.770Z,36.79
2019-04-01T09:53:27.721Z,36.47
2019-04-01T09:54:30.209Z,37.30
2019-04-01T09:55:27.702Z,38.12
2019-04-01T09:56:27.691Z,36.98
2019-04-01T09:57:27.699Z,37.71
2019-04-01T09:58:27.675Z,38.12
2019-04-01T09:59:27.664Z,38.40
2019-04-01T10:00:28.184Z,36.66
2019-04-01T10:01:28.190Z,36.56
2019-04-01T10:02:31.990Z,37.48
2019-04-01T10:03:27.643Z,37.07
2019-04-01T10:04:27.604Z,37.99
2019-04-01T10:06:26.589Z,35.95
2019-04-01T10:09:26.544Z,36.14
2019-04-01T10:10:27.538Z,36.55
2019-04-01T10:11:27.521Z,36.55
2019-04-01T10:12:27.525Z,36.34
2019-04-01T10:13:27.852Z,36.56
2019-04-01T10:14:27.489Z,36.66
2019-04-01T10:15:28.184Z,36.46
2019-04-01T10:16:27.494Z,36.56
2019-04-01T10:17:27.466Z,36.77
2019-04-01T10:18:27.442Z,36.77
2019-04-01T10:19:27.469Z,38.39
2019-04-01T10:20:27.428Z,36.96
2019-04-01T10:21:27.414Z,36.65
2019-04-01T10:22:28.182Z,36.65
2019-04-01T10:23:31.682Z,36.55
2019-04-01T10:24:28.182Z,36.24
2019-04-01T10:25:27.368Z,36.83
2019-04-01T10:26:27.355Z,35.91
2019-04-01T10:27:27.353Z,35.40
2019-04-01T10:28:27.338Z,34.77
2019-04-01T10:29:27.342Z,35.18
2019-04-01T10:30:27.317Z,35.39
2019-04-01T10:31:27.307Z,35.39
2019-04-01T10:32:27.290Z,34.98
2019-04-01T10:34:26.270Z,36.82
2019-04-01T10:35:27.278Z,35.20
2019-04-01T10:36:27.266Z,35.08
2019-04-01T10:37:27.240Z,35.18
2019-04-01T10:38:27.241Z,35.18
2019-04-01T10:39:27.210Z,35.69
2019-04-01T10:40:27.243Z,35.06
2019-04-01T10:41:27.200Z,35.47
2019-04-01T10:42:27.185Z,34.14
2019-04-01T10:43:27.174Z,34.14
2019-04-01T10:44:27.159Z,33.63
2019-04-01T10:45:27.161Z,33.63
2019-04-01T10:46:27.179Z,33.53
2019-04-01T10:47:27.691Z,32.81
2019-04-01T10:48:27.211Z,33.00
2019-04-01T10:49:27.124Z,32.20
2019-04-01T10:50:27.215Z,32.51
2019-04-01T10:51:27.081Z,31.88
2019-04-01T10:52:27.140Z,32.61
2019-04-01T10:53:27.062Z,33.72
2019-04-01T10:54:27.082Z,32.39
2019-04-01T10:55:27.107Z,32.81
2019-04-01T10:56:27.081Z,33.41
2019-04-01T10:57:27.103Z,33.00
2019-04-01T10:58:27.056Z,32.99
2019-04-01T10:59:27.016Z,33.60
2019-04-01T11:00:27.033Z,33.60
2019-04-01T11:01:27.003Z,32.68
2019-04-01T11:02:26.992Z,33.09
2019-04-01T11:03:26.971Z,32.99
2019-04-01T11:04:26.976Z,32.89
2019-04-01T11:05:27.013Z,33.29
2019-04-01T11:06:26.982Z,33.19
2019-04-01T11:07:26.970Z,32.26
2019-04-01T11:08:26.939Z,32.28
2019-04-01T11:09:38.336Z,33.60
2019-04-01T11:10:26.879Z,32.89
2019-04-01T11:11:27.338Z,32.58
2019-04-01T11:12:26.857Z,32.99
2019-04-01T11:13:26.846Z,32.17
2019-04-01T11:14:26.861Z,32.99
2019-04-01T11:15:26.827Z,33.70
2019-04-01T11:16:26.910Z,32.37
2019-04-01T11:17:26.805Z,33.48
2019-04-01T11:18:26.801Z,32.87
2019-04-01T11:19:26.784Z,32.77
2019-04-01T11:20:26.830Z,32.77
2019-04-01T11:21:26.787Z,33.87
2019-04-01T11:22:26.754Z,33.16
2019-04-01T11:23:26.753Z,32.24
2019-04-01T11:24:26.739Z,32.55
2019-04-01T11:25:26.718Z,31.84
2019-04-01T11:26:26.728Z,32.87
2019-04-01T11:27:26.695Z,32.15
2019-04-01T11:28:26.689Z,32.06
2019-04-01T11:29:26.692Z,32.77
2019-04-01T11:30:26.683Z,32.77
2019-04-01T11:31:26.674Z,32.87
2019-04-01T11:32:26.715Z,32.36
2019-04-01T11:33:26.649Z,32.97
2019-04-01T11:34:26.719Z,32.36
2019-04-01T11:35:26.606Z,33.89
2019-04-01T11:36:26.608Z,33.07
2019-04-01T11:37:26.673Z,33.47
2019-04-01T11:38:26.583Z,32.75
2019-04-01T11:39:26.702Z,32.24
2019-04-01T11:40:26.559Z,32.34
2019-04-01T11:41:29.229Z,32.96
2019-04-01T11:42:26.603Z,32.24
2019-04-01T11:43:26.582Z,32.34
2019-04-01T11:44:26.528Z,32.86
2019-04-01T11:45:26.565Z,33.57
2019-04-01T11:46:26.548Z,34.18
2019-04-01T11:47:26.484Z,33.98
2019-04-01T11:48:26.474Z,32.75
2019-04-01T11:49:26.466Z,32.53
2019-04-01T11:50:26.475Z,33.25
2019-04-01T11:51:33.510Z,32.74
2019-04-01T11:52:26.460Z,33.86
2019-04-01T11:53:26.414Z,33.06
2019-04-01T11:54:26.401Z,32.84
2019-04-01T11:55:26.390Z,33.26
2019-04-01T11:56:26.844Z,33.35
2019-04-01T11:57:26.394Z,33.76
2019-04-01T11:58:26.373Z,33.26
2019-04-01T11:59:26.364Z,34.27
2019-04-01T12:00:26.450Z,33.45
2019-04-01T12:01:26.338Z,33.67
2019-04-01T12:02:26.345Z,34.48
2019-04-01T12:03:26.325Z,33.77
2019-04-01T12:04:26.297Z,33.57
2019-04-01T12:05:26.289Z,33.57
2019-04-01T12:06:26.278Z,33.87
2019-04-01T12:07:26.292Z,33.47
2019-04-01T12:08:26.292Z,33.45
2019-04-01T12:09:27.087Z,33.67
2019-04-01T12:10:26.231Z,33.86
2019-04-01T12:11:26.223Z,33.45
2019-04-01T12:12:26.209Z,33.15
2019-04-01T12:13:26.219Z,33.25
2019-04-01T12:14:26.192Z,34.17
2019-04-01T12:15:26.177Z,33.76
2019-04-01T12:16:26.167Z,33.35
2019-04-01T12:17:26.167Z,33.65
2019-04-01T12:18:26.143Z,33.55
2019-04-01T12:19:26.150Z,33.84
2019-04-01T12:20:26.121Z,33.65
2019-04-01T12:21:26.111Z,32.82
2019-04-01T12:22:26.197Z,33.64
2019-04-01T12:23:26.097Z,34.56
2019-04-01T12:24:26.086Z,34.06
2019-04-01T12:25:26.084Z,34.45
2019-04-01T12:26:26.059Z,33.15
2019-04-01T12:27:26.049Z,32.82
2019-04-01T12:28:26.208Z,32.72
2019-04-01T12:29:26.027Z,33.03
2019-04-01T12:30:28.646Z,33.44
2019-04-01T12:31:26.003Z,33.44
2019-04-01T12:32:26.001Z,34.05
2019-04-01T12:33:26.618Z,34.35
2019-04-01T12:34:25.993Z,33.84
2019-04-01T12:35:25.962Z,33.25
2019-04-01T12:36:25.949Z,32.93
2019-04-01T12:37:30.214Z,33.84
2019-04-01T12:38:25.932Z,33.74
2019-04-01T12:39:25.915Z,33.54
2019-04-01T12:40:26.650Z,33.33
2019-04-01T12:41:26.644Z,33.64
2019-04-01T12:42:25.887Z,34.15
2019-04-01T12:43:25.877Z,33.33
2019-04-01T12:44:25.939Z,33.23
2019-04-01T12:45:25.970Z,33.44
2019-04-01T12:46:25.865Z,33.23
2019-04-01T12:47:25.832Z,32.31
2019-04-01T12:48:25.824Z,33.64
2019-04-01T12:49:28.643Z,33.54
2019-04-01T12:50:25.800Z,33.42
2019-04-01T12:51:25.787Z,33.62
2019-04-01T12:52:25.810Z,34.03
2019-04-01T12:53:25.772Z,34.34
2019-04-01T12:54:25.761Z,34.13
2019-04-01T12:55:25.747Z,34.03
2019-04-01T12:56:25.736Z,33.52
2019-04-01T12:57:25.727Z,33.11
2019-04-01T12:58:25.963Z,33.13
2019-04-01T12:59:25.705Z,34.15
2019-04-01T13:00:29.004Z,34.45
2019-04-01T13:02:24.669Z,34.35
2019-04-01T13:03:25.673Z,34.15
2019-04-01T13:04:25.718Z,34.35
2019-04-01T13:05:26.141Z,33.96
2019-04-01T13:06:25.628Z,33.23
2019-04-01T13:07:25.638Z,33.44
2019-04-01T13:08:25.621Z,33.44
2019-04-01T13:09:25.609Z,34.66
2019-04-01T13:10:25.585Z,33.64
2019-04-01T13:11:25.579Z,33.44
2019-04-01T13:12:27.426Z,34.56